Monument, KS (67747)

4:43 PM CDT on May 29, 2015 (GMT -0500)
Kistler Farms | | Change Station
CLOSE
Current Station
Personal Weather Station
Location: Colby, KS
Elevation: 3179 ft
Nearby Weather Stations

Elev 3179 ft 39.27 °N, 101.07 °W | Updated 8 seconds ago

Partly Cloudy
Partly Cloudy
63.8 °F
Feels Like 63.8 °F
N
17.0
Wind Variable Wind from NNW
Gusts 42.0 mph

Today
High -- | Low -- °F
--% Chance of Precip.
Yesterday
High -- | Low -- °F
Precip. -- in
6:21 AM 9:01 PM
Waxing Gibbous, 86% visible
Pressure 30.10 in
Visibility 0.8 miles
Clouds Mostly Cloudy 1400 ft
Overcast 5000 ft
Dew Point 49 °F
Humidity 58%
Rainfall 0.00 in
Snow Depth Not available.
UV 2 out of 12
Pollen 6.70 out of 12
Air Quality Not available.
Flu Activity No Activity
METAR KCBK 292135Z AUTO 22008G39KT 3/4SM +RA BKN014 OVC050 12/12 A3010 RMK AO2

More Conditions Fewer Conditions

Pressure 30.10 in
Visibility 0.8 miles
Clouds Mostly Cloudy 1400 ft
Overcast 5000 ft
Dew Point 49 °F
Humidity 58%
Rainfall 0.00 in
Snow Depth Not available.
UV 2 out of 12
Pollen 6.70 out of 12
Air Quality Not available.
Flu Activity No Activity
METAR KCBK 292135Z AUTO 22008G39KT 3/4SM +RA BKN014 OVC050 12/12 A3010 RMK AO2

More Conditions Fewer Conditions

10-Day Weather Forecast

Almanac

Astronomy

May. 29, 2015 Rise Set
Actual Time
Civil Twilight
Nautical Twilight
Astronomical Twilight
Moon
Length of Visible Light
Length of Day
Tomorrow will be .
, % of the Moon is Illuminated

Today's Extremes

State Highs State Lows

Community

WunderPhotos

Upload Photos

1,825,372 photos uploaded!

WunderBlogs® & News

Nearby

Air Quality

  Air Quality AQ Index Pollutant
Not available.

Snow Depth

Station Depth Elevation

Earthquake Activity

City Distance Mag. Time & Date
Minimum magnitude displayed is 2.5.

Coastal Water Temperatures

Place Temperature

Stations

Nearby Weather Stations

Station Location Temp. Windchill Dew Point Humidity Wind Precip. Elev Updated Type